createdAt,value
2022-09-16T00:00:55.996Z,14.53
2022-09-16T00:03:23.010Z,14.53
2022-09-16T00:05:53.399Z,14.63
2022-09-16T00:08:21.771Z,14.65
2022-09-16T00:10:49.399Z,14.62
2022-09-16T00:13:16.825Z,14.63
2022-09-16T00:15:49.377Z,14.57
2022-09-16T00:18:16.317Z,14.55
2022-09-16T00:21:01.584Z,14.52
2022-09-16T00:23:36.020Z,14.54
2022-09-16T00:26:46.400Z,14.56
2022-09-16T00:29:13.248Z,14.55
2022-09-16T00:31:40.293Z,14.51
2022-09-16T00:34:06.957Z,14.47
2022-09-16T00:36:33.793Z,14.43
2022-09-16T00:39:00.589Z,14.46
2022-09-16T00:41:33.175Z,14.53
2022-09-16T00:44:05.756Z,14.55
2022-09-16T00:46:39.697Z,14.57
2022-09-16T00:49:13.364Z,14.66
2022-09-16T00:51:41.592Z,14.70
2022-09-16T00:54:10.502Z,14.72
2022-09-16T00:56:41.863Z,14.77
2022-09-16T00:59:14.855Z,14.63
2022-09-16T01:01:50.606Z,14.61
2022-09-16T01:04:26.763Z,14.66
2022-09-16T01:06:57.135Z,14.63
2022-09-16T01:09:26.189Z,14.65
2022-09-16T01:11:53.070Z,14.55
2022-09-16T01:14:41.083Z,14.47
2022-09-16T01:17:20.586Z,14.39
2022-09-16T01:20:12.103Z,14.29
2022-09-16T01:22:44.758Z,14.26
2022-09-16T01:25:41.716Z,14.15
2022-09-16T01:28:38.047Z,14.19
2022-09-16T01:31:33.855Z,14.32
2022-09-16T01:34:18.863Z,14.21
2022-09-16T01:37:07.761Z,14.19
2022-09-16T01:39:49.876Z,14.15
2022-09-16T01:42:58.618Z,14.11
2022-09-16T01:45:58.184Z,14.21
2022-09-16T01:48:53.025Z,14.13
2022-09-16T01:51:31.965Z,14.14
2022-09-16T01:54:05.979Z,14.09
2022-09-16T01:56:49.891Z,14.06
2022-09-16T01:59:31.593Z,14.18
2022-09-16T02:02:09.611Z,14.13
2022-09-16T02:04:51.685Z,14.26
2022-09-16T02:07:23.452Z,14.17
2022-09-16T02:09:56.763Z,14.13
2022-09-16T02:12:34.968Z,14.07
2022-09-16T02:15:08.563Z,14.06
2022-09-16T02:17:41.942Z,14.07
2022-09-16T02:20:13.477Z,14.00
2022-09-16T02:22:44.793Z,13.95
2022-09-16T02:25:14.989Z,13.98
2022-09-16T02:27:46.085Z,13.89
2022-09-16T02:30:18.607Z,13.88
2022-09-16T02:32:58.662Z,13.89
2022-09-16T02:35:27.596Z,13.86
2022-09-16T02:38:29.398Z,13.76
2022-09-16T02:40:58.416Z,13.77
2022-09-16T02:43:26.954Z,13.79
2022-09-16T02:46:19.328Z,13.77
2022-09-16T02:48:50.431Z,13.77
2022-09-16T02:51:34.454Z,13.79
2022-09-16T02:54:37.321Z,13.78
2022-09-16T02:57:05.054Z,13.83
2022-09-16T02:59:32.518Z,13.85
2022-09-16T03:02:01.500Z,13.89
2022-09-16T03:04:29.512Z,13.88
2022-09-16T03:06:59.089Z,13.83
2022-09-16T03:09:26.182Z,13.74
2022-09-16T03:12:16.772Z,13.75
2022-09-16T03:14:43.781Z,13.82
2022-09-16T03:17:36.668Z,13.77
2022-09-16T03:20:17.118Z,13.67
2022-09-16T03:22:50.867Z,13.72
2022-09-16T03:25:39.807Z,13.73
2022-09-16T03:28:17.041Z,13.74
2022-09-16T03:30:53.724Z,13.78
2022-09-16T03:33:54.009Z,13.70
2022-09-16T03:36:29.547Z,13.73
2022-09-16T03:38:58.802Z,13.72
2022-09-16T03:41:29.955Z,13.65
2022-09-16T03:44:03.767Z,13.73
2022-09-16T03:46:31.744Z,13.76
2022-09-16T03:49:00.414Z,13.77
2022-09-16T03:51:27.102Z,13.82
2022-09-16T03:53:54.539Z,13.78
2022-09-16T03:56:25.887Z,13.74
2022-09-16T03:58:52.812Z,13.71
2022-09-16T04:01:23.088Z,13.71
2022-09-16T04:03:49.929Z,13.69
2022-09-16T04:06:16.639Z,13.71
2022-09-16T04:08:45.139Z,13.67
2022-09-16T04:11:11.853Z,13.64
2022-09-16T04:13:38.568Z,13.62
2022-09-16T04:16:05.683Z,13.62
2022-09-16T04:18:33.489Z,13.61
2022-09-16T04:21:02.047Z,13.56
2022-09-16T04:23:31.378Z,13.59
2022-09-16T04:25:59.628Z,13.61
2022-09-16T04:28:26.633Z,13.58
2022-09-16T04:30:53.779Z,13.64
2022-09-16T04:33:21.154Z,13.65
2022-09-16T04:35:50.623Z,13.67
2022-09-16T04:38:17.220Z,13.73
2022-09-16T04:40:43.854Z,13.75
2022-09-16T04:43:15.902Z,13.79
2022-09-16T04:45:42.544Z,13.90
2022-09-16T04:48:09.526Z,13.89
2022-09-16T04:50:36.435Z,13.88
2022-09-16T04:53:03.393Z,13.91
2022-09-16T04:55:30.226Z,13.98
2022-09-16T04:58:00.906Z,14.02
2022-09-16T05:00:28.004Z,13.80
2022-09-16T05:02:54.874Z,13.78
2022-09-16T05:05:22.016Z,13.78
2022-09-16T05:07:48.528Z,13.76
2022-09-16T05:10:15.287Z,13.74
2022-09-16T05:12:41.778Z,13.69
2022-09-16T05:15:11.190Z,13.74
2022-09-16T05:17:50.759Z,13.80
2022-09-16T05:20:18.112Z,13.79
2022-09-16T05:22:53.147Z,13.80
2022-09-16T05:25:19.749Z,13.82
2022-09-16T05:27:47.186Z,13.66
2022-09-16T05:30:15.832Z,13.63
2022-09-16T05:32:42.797Z,13.57
2022-09-16T05:35:10.199Z,13.55
2022-09-16T05:37:36.839Z,13.55
2022-09-16T05:40:03.676Z,13.40
2022-09-16T05:42:30.425Z,13.38
2022-09-16T05:44:56.839Z,13.33
2022-09-16T05:47:23.273Z,13.32
2022-09-16T05:49:49.920Z,13.36
2022-09-16T05:52:16.441Z,13.39
2022-09-16T05:54:43.320Z,13.40
2022-09-16T05:57:09.849Z,13.44
2022-09-16T05:59:36.334Z,13.49
2022-09-16T06:02:03.060Z,13.40
2022-09-16T06:04:29.633Z,13.52
2022-09-16T06:06:56.200Z,13.45
2022-09-16T06:09:24.671Z,13.50
2022-09-16T06:11:56.639Z,13.57
2022-09-16T06:14:25.084Z,13.61
2022-09-16T06:16:51.924Z,13.57
2022-09-16T06:19:18.873Z,13.51
2022-09-16T06:21:45.942Z,13.62
2022-09-16T06:24:14.270Z,13.70
2022-09-16T06:26:42.641Z,13.70
2022-09-16T06:29:10.114Z,13.79
2022-09-16T06:31:37.882Z,13.73
2022-09-16T06:34:05.467Z,13.78
2022-09-16T06:36:35.010Z,13.78
2022-09-16T06:39:01.623Z,13.77
2022-09-16T06:41:28.152Z,13.73
2022-09-16T06:43:54.790Z,13.76
2022-09-16T06:46:24.702Z,13.81
2022-09-16T06:48:53.985Z,13.83
2022-09-16T06:51:25.690Z,13.88
2022-09-16T06:53:56.903Z,13.97
2022-09-16T06:56:23.443Z,13.84
2022-09-16T06:58:55.783Z,13.80
2022-09-16T07:01:29.082Z,13.72
2022-09-16T07:03:59.107Z,13.70
2022-09-16T07:09:19.102Z,13.89
2022-09-16T07:11:45.651Z,13.90
2022-09-16T07:14:12.364Z,14.02
2022-09-16T07:16:38.899Z,14.10
2022-09-16T07:19:06.065Z,14.20
2022-09-16T07:21:32.800Z,14.36
2022-09-16T07:24:01.387Z,14.57
2022-09-16T07:26:33.565Z,14.49
2022-09-16T07:29:02.137Z,14.38
2022-09-16T07:31:30.996Z,14.43
2022-09-16T07:34:03.786Z,14.34
2022-09-16T07:36:34.498Z,14.55
2022-09-16T07:39:01.486Z,14.84
2022-09-16T07:41:30.740Z,15.15
2022-09-16T07:44:01.002Z,15.25
2022-09-16T07:46:30.699Z,15.27
2022-09-16T07:48:59.197Z,15.41
2022-09-16T07:51:27.600Z,15.06
2022-09-16T07:53:56.317Z,15.55
2022-09-16T07:56:25.452Z,15.58
2022-09-16T07:58:53.242Z,15.72
2022-09-16T08:01:20.177Z,15.52
2022-09-16T08:03:48.965Z,15.66
2022-09-16T08:06:22.284Z,15.24
2022-09-16T08:08:52.503Z,15.22
2022-09-16T08:11:19.242Z,15.07
2022-09-16T08:13:46.442Z,15.32
2022-09-16T08:16:18.737Z,15.31
2022-09-16T08:18:47.377Z,15.47
2022-09-16T08:21:26.152Z,16.11
2022-09-16T08:23:52.949Z,15.82
2022-09-16T08:26:20.706Z,15.64
2022-09-16T08:29:08.889Z,15.53
2022-09-16T08:31:37.335Z,14.83
2022-09-16T08:34:04.175Z,14.72
2022-09-16T08:36:33.462Z,14.76
2022-09-16T08:39:00.346Z,14.98
2022-09-16T08:41:48.966Z,15.10
2022-09-16T08:44:24.777Z,15.37
2022-09-16T08:47:09.073Z,14.95
2022-09-16T08:49:43.982Z,14.68
2022-09-16T08:52:15.411Z,14.71
2022-09-16T08:54:49.836Z,15.23
2022-09-16T08:57:21.308Z,15.30
2022-09-16T09:00:22.727Z,15.54
2022-09-16T09:03:14.847Z,15.19
2022-09-16T09:05:47.640Z,15.03
2022-09-16T09:08:19.990Z,15.07
2022-09-16T09:10:54.185Z,15.30
2022-09-16T09:13:37.376Z,15.23
2022-09-16T09:16:10.194Z,15.46
2022-09-16T09:18:39.906Z,15.58
2022-09-16T09:21:27.910Z,15.59
2022-09-16T09:24:08.015Z,15.99
2022-09-16T09:26:57.428Z,16.47
2022-09-16T09:29:26.807Z,17.49
2022-09-16T09:32:02.055Z,17.65
2022-09-16T09:34:59.338Z,16.92
2022-09-16T09:37:56.446Z,16.42
2022-09-16T09:40:49.155Z,16.98
2022-09-16T09:43:24.171Z,16.90
2022-09-16T09:46:05.505Z,16.75
2022-09-16T09:48:40.227Z,17.37
2022-09-16T09:51:33.387Z,18.56
2022-09-16T09:54:08.459Z,19.19
2022-09-16T09:56:40.392Z,17.62
2022-09-16T09:59:16.672Z,17.32
2022-09-16T10:01:44.027Z,17.00
2022-09-16T10:04:17.581Z,16.50
2022-09-16T10:06:46.127Z,16.59
2022-09-16T10:09:14.628Z,15.97
2022-09-16T10:11:50.240Z,15.88
2022-09-16T10:14:36.911Z,15.91
2022-09-16T10:17:22.142Z,15.86
2022-09-16T10:20:20.604Z,16.05
2022-09-16T10:22:57.589Z,16.44
2022-09-16T10:25:26.958Z,17.17
2022-09-16T10:28:05.249Z,16.77
2022-09-16T10:30:48.336Z,17.26
2022-09-16T10:33:22.720Z,17.19
2022-09-16T10:36:32.808Z,16.56
2022-09-16T10:39:35.758Z,16.46
2022-09-16T10:42:32.090Z,16.67
2022-09-16T10:45:22.499Z,16.81
2022-09-16T10:48:04.881Z,17.10
2022-09-16T10:50:34.334Z,17.34
2022-09-16T10:53:07.407Z,17.37
2022-09-16T10:55:39.248Z,17.40
2022-09-16T10:58:28.517Z,17.47
2022-09-16T11:01:34.729Z,16.65
2022-09-16T11:04:36.578Z,16.56
2022-09-16T11:07:09.273Z,16.55
2022-09-16T11:10:16.180Z,16.25
2022-09-16T11:13:08.090Z,16.16
2022-09-16T11:15:50.180Z,16.02
2022-09-16T11:18:35.426Z,15.83
2022-09-16T11:22:06.531Z,15.69
2022-09-16T11:24:46.260Z,15.73
2022-09-16T11:27:53.658Z,15.49
2022-09-16T11:30:22.652Z,15.58
2022-09-16T11:33:03.078Z,15.54
2022-09-16T11:35:47.537Z,15.52
2022-09-16T11:38:43.935Z,15.57
2022-09-16T11:41:37.906Z,15.58
2022-09-16T11:44:20.571Z,15.71
2022-09-16T11:47:06.518Z,16.04
2022-09-16T11:50:10.670Z,15.83
2022-09-16T11:53:04.039Z,16.18
2022-09-16T11:55:52.092Z,16.16
2022-09-16T11:58:34.074Z,15.97
2022-09-16T12:01:10.625Z,15.92
2022-09-16T12:03:54.828Z,15.90
2022-09-16T12:06:25.952Z,15.77
2022-09-16T12:09:03.815Z,15.84
2022-09-16T12:11:54.195Z,15.80
2022-09-16T12:14:32.160Z,15.84
2022-09-16T12:17:11.064Z,15.53
2022-09-16T12:20:04.891Z,15.33
2022-09-16T12:22:48.315Z,15.39
2022-09-16T12:25:46.093Z,15.28
2022-09-16T12:28:32.105Z,15.23
2022-09-16T12:31:23.739Z,15.10
2022-09-16T12:34:06.036Z,15.22
2022-09-16T12:36:37.658Z,15.45
2022-09-16T12:39:04.261Z,15.40
2022-09-16T12:42:01.267Z,15.43
2022-09-16T12:45:07.339Z,15.62
2022-09-16T12:47:49.438Z,15.91
2022-09-16T12:54:16.850Z,16.32
2022-09-16T12:57:02.129Z,16.23
2022-09-16T12:59:51.380Z,16.12
2022-09-16T13:02:22.060Z,16.04
2022-09-16T13:04:56.184Z,16.01
2022-09-16T13:07:38.552Z,16.26
2022-09-16T13:10:46.838Z,16.32
2022-09-16T13:13:25.074Z,16.36
2022-09-16T13:16:00.083Z,16.33
2022-09-16T13:18:38.504Z,16.21
2022-09-16T13:21:39.248Z,16.36
2022-09-16T13:24:23.897Z,16.75
2022-09-16T13:26:51.056Z,16.53
2022-09-16T13:29:39.515Z,16.31
2022-09-16T13:32:24.478Z,16.37
2022-09-16T13:35:04.415Z,16.36
2022-09-16T13:37:32.948Z,16.42
2022-09-16T13:40:09.866Z,16.38
2022-09-16T13:42:36.632Z,16.27
2022-09-16T13:45:03.509Z,16.65
2022-09-16T13:47:40.318Z,17.08
2022-09-16T13:52:57.001Z,17.59
2022-09-16T13:55:31.958Z,17.52
2022-09-16T13:58:07.932Z,17.63
2022-09-16T14:01:01.591Z,17.78
2022-09-16T14:03:55.715Z,17.67
2022-09-16T14:06:50.458Z,17.73
2022-09-16T14:09:20.329Z,17.95
2022-09-16T14:12:09.447Z,18.16
2022-09-16T14:14:46.793Z,18.09
2022-09-16T14:17:27.787Z,18.30
2022-09-16T14:20:00.182Z,18.50
2022-09-16T14:22:37.205Z,18.63
2022-09-16T14:25:19.543Z,18.82
2022-09-16T14:30:30.727Z,18.55
2022-09-16T14:32:57.867Z,18.28
2022-09-16T14:35:30.428Z,17.64
2022-09-16T14:38:04.032Z,17.43
2022-09-16T14:40:31.303Z,17.55
2022-09-16T14:43:07.035Z,17.33
2022-09-16T14:45:37.026Z,16.93
2022-09-16T14:48:09.604Z,16.76
2022-09-16T14:50:43.758Z,16.97
2022-09-16T14:53:38.505Z,17.15
2022-09-16T14:56:06.042Z,17.19
2022-09-16T14:58:33.921Z,17.14
2022-09-16T15:01:10.515Z,17.18
2022-09-16T15:03:53.628Z,17.10
2022-09-16T15:06:24.953Z,17.14
2022-09-16T15:08:58.987Z,17.10
2022-09-16T15:11:53.163Z,17.15
2022-09-16T15:14:25.992Z,17.15
2022-09-16T15:17:00.902Z,17.07
2022-09-16T15:19:36.281Z,16.89
2022-09-16T15:22:11.329Z,16.93
2022-09-16T15:24:45.759Z,16.83
2022-09-16T15:27:20.653Z,16.87
2022-09-16T15:29:52.025Z,16.90
2022-09-16T15:32:22.624Z,16.90
2022-09-16T15:35:00.517Z,16.89
2022-09-16T15:37:35.893Z,17.00
2022-09-16T15:43:04.343Z,16.79
2022-09-16T15:45:31.665Z,16.72
2022-09-16T15:48:21.257Z,16.56
2022-09-16T15:50:56.318Z,16.60
2022-09-16T15:53:32.426Z,16.87
2022-09-16T15:56:20.454Z,17.06
2022-09-16T15:58:58.346Z,16.78
2022-09-16T16:01:46.891Z,16.50
2022-09-16T16:04:25.619Z,16.48
2022-09-16T16:06:58.531Z,16.12
2022-09-16T16:09:32.326Z,15.26
2022-09-16T16:12:11.742Z,15.01
2022-09-16T16:14:41.439Z,14.46
2022-09-16T16:17:14.830Z,14.08
2022-09-16T16:19:46.414Z,14.19
2022-09-16T16:25:00.975Z,14.92
2022-09-16T16:27:27.677Z,15.16
2022-09-16T16:29:56.876Z,15.09
2022-09-16T16:32:23.581Z,14.89
2022-09-16T16:34:50.591Z,14.72
2022-09-16T16:37:40.656Z,14.59
2022-09-16T16:40:08.168Z,14.31
2022-09-16T16:42:37.159Z,14.33
2022-09-16T16:45:06.968Z,14.32
2022-09-16T16:47:33.844Z,14.56
2022-09-16T16:50:19.684Z,14.53
2022-09-16T16:53:22.402Z,14.66
2022-09-16T16:55:49.220Z,14.85
2022-09-16T16:58:16.043Z,14.76
2022-09-16T17:00:42.859Z,14.66
2022-09-16T17:03:09.672Z,14.58
2022-09-16T17:05:37.268Z,14.41
2022-09-16T17:08:07.274Z,14.27
2022-09-16T17:13:46.151Z,14.09
2022-09-16T17:16:17.167Z,14.10
2022-09-16T17:18:49.578Z,13.99
2022-09-16T17:21:34.396Z,13.86
2022-09-16T17:26:50.519Z,13.56
2022-09-16T17:29:20.714Z,13.63
2022-09-16T17:31:59.512Z,13.42
2022-09-16T17:34:26.650Z,13.33
2022-09-16T17:37:05.538Z,13.26
2022-09-16T17:39:33.760Z,13.31
2022-09-16T17:42:00.732Z,13.24
2022-09-16T17:44:27.738Z,13.17
2022-09-16T17:46:54.506Z,13.21
2022-09-16T17:49:24.020Z,13.15
2022-09-16T17:51:53.859Z,13.14
2022-09-16T17:54:23.707Z,13.03
2022-09-16T17:56:50.681Z,13.09
2022-09-16T17:59:19.040Z,12.98
2022-09-16T18:01:46.946Z,12.88
2022-09-16T18:04:13.590Z,12.82
2022-09-16T18:06:42.936Z,12.82
2022-09-16T18:09:10.017Z,12.81
2022-09-16T18:11:40.651Z,12.83
2022-09-16T18:14:10.880Z,12.73
2022-09-16T18:16:37.800Z,12.66
2022-09-16T18:19:10.966Z,12.64
2022-09-16T18:21:38.451Z,12.67
2022-09-16T18:24:13.141Z,12.72
2022-09-16T18:26:42.171Z,12.75
2022-09-16T18:29:12.552Z,12.80
2022-09-16T18:31:48.694Z,12.77
2022-09-16T18:34:19.734Z,12.78
2022-09-16T18:36:47.004Z,12.75
2022-09-16T18:39:23.145Z,12.78
2022-09-16T18:41:50.312Z,12.79
2022-09-16T18:44:21.565Z,12.83
2022-09-16T18:46:48.554Z,12.84
2022-09-16T18:49:17.259Z,12.83
2022-09-16T18:51:52.210Z,12.84
2022-09-16T18:54:28.031Z,12.76
2022-09-16T18:59:41.039Z,12.78
2022-09-16T19:02:11.467Z,12.76
2022-09-16T19:04:39.885Z,12.69
2022-09-16T19:07:08.447Z,12.55
2022-09-16T19:09:37.701Z,12.41
2022-09-16T19:14:50.258Z,12.32
2022-09-16T19:17:17.398Z,12.30
2022-09-16T19:19:44.143Z,12.24
2022-09-16T19:22:11.196Z,12.27
2022-09-16T19:24:38.874Z,12.24
2022-09-16T19:27:06.675Z,12.26
2022-09-16T19:29:36.776Z,12.21
2022-09-16T19:32:03.991Z,12.13
2022-09-16T19:34:32.969Z,12.13
2022-09-16T19:37:03.372Z,12.03
2022-09-16T19:39:30.454Z,11.97
2022-09-16T19:41:57.160Z,11.90
2022-09-16T19:44:23.771Z,11.81
2022-09-16T19:49:32.275Z,11.82
2022-09-16T19:51:58.720Z,11.78
2022-09-16T19:54:25.400Z,11.79
2022-09-16T19:56:52.526Z,11.80
2022-09-16T19:59:21.117Z,11.80
2022-09-16T20:01:48.110Z,11.78
2022-09-16T20:04:15.651Z,11.67
2022-09-16T20:06:44.853Z,11.61
2022-09-16T20:09:13.422Z,11.54
2022-09-16T20:11:46.174Z,11.53
2022-09-16T20:14:21.824Z,11.50
2022-09-16T20:16:50.713Z,11.45
2022-09-16T20:19:20.055Z,11.49
2022-09-16T20:21:47.418Z,11.54
2022-09-16T20:24:18.462Z,11.57
2022-09-16T20:26:46.060Z,11.52
2022-09-16T20:29:17.838Z,11.46
2022-09-16T20:31:45.904Z,11.30
2022-09-16T20:34:14.824Z,11.28
2022-09-16T20:36:46.452Z,11.25
2022-09-16T20:39:14.556Z,11.12
2022-09-16T20:41:41.928Z,11.17
2022-09-16T20:44:13.012Z,11.12
2022-09-16T20:46:39.602Z,11.10
2022-09-16T20:49:12.390Z,11.02
2022-09-16T20:51:38.963Z,11.02
2022-09-16T20:54:08.619Z,11.04
2022-09-16T20:56:39.249Z,11.00
2022-09-16T20:59:08.005Z,10.99
2022-09-16T21:01:35.722Z,10.96
2022-09-16T21:04:05.163Z,11.00
2022-09-16T21:06:34.569Z,10.92
2022-09-16T21:09:04.201Z,10.81
2022-09-16T21:11:32.046Z,10.79
2022-09-16T21:14:06.470Z,10.69
2022-09-16T21:16:36.051Z,10.72
2022-09-16T21:19:05.107Z,10.65
2022-09-16T21:21:34.412Z,10.69
2022-09-16T21:24:01.444Z,10.67
2022-09-16T21:26:33.137Z,10.52
2022-09-16T21:29:11.523Z,10.48
2022-09-16T21:31:39.926Z,10.43
2022-09-16T21:34:10.743Z,10.39
2022-09-16T21:36:41.170Z,10.37
2022-09-16T21:39:08.640Z,10.34
2022-09-16T21:41:35.790Z,10.37
2022-09-16T21:44:03.987Z,10.38
2022-09-16T21:46:40.140Z,10.40
2022-09-16T21:49:13.523Z,10.42
2022-09-16T21:51:40.041Z,10.34
2022-09-16T21:54:09.324Z,10.38
2022-09-16T21:56:40.807Z,10.34
2022-09-16T21:59:08.656Z,10.31
2022-09-16T22:04:26.016Z,10.23
2022-09-16T22:06:55.424Z,10.25
2022-09-16T22:09:24.800Z,10.19
2022-09-16T22:11:52.130Z,10.20
2022-09-16T22:14:19.319Z,10.17
2022-09-16T22:16:46.313Z,10.12
2022-09-16T22:19:19.808Z,10.07
2022-09-16T22:21:50.400Z,10.04
2022-09-16T22:24:20.384Z,10.01
2022-09-16T22:26:50.516Z,10.00
2022-09-16T22:29:17.506Z,10.01
2022-09-16T22:31:44.262Z,9.98
2022-09-16T22:34:10.863Z,9.88
2022-09-16T22:36:38.551Z,9.88
2022-09-16T22:39:14.072Z,9.84
2022-09-16T22:41:41.242Z,9.83
2022-09-16T22:44:10.894Z,9.87
2022-09-16T22:46:46.389Z,9.81
2022-09-16T22:49:14.074Z,9.82
2022-09-16T22:51:41.173Z,9.88
2022-09-16T22:54:08.986Z,9.91
2022-09-16T22:56:35.900Z,9.91
2022-09-16T22:59:06.471Z,9.83
2022-09-16T23:01:39.301Z,9.90
2022-09-16T23:04:08.223Z,9.93
2022-09-16T23:06:36.178Z,9.90
2022-09-16T23:09:03.751Z,9.84
2022-09-16T23:11:32.885Z,9.83
2022-09-16T23:14:01.326Z,9.85
2022-09-16T23:19:12.494Z,9.81
2022-09-16T23:21:39.732Z,9.76
2022-09-16T23:24:08.502Z,9.70
2022-09-16T23:26:38.066Z,9.68
2022-09-16T23:29:07.631Z,9.68
2022-09-16T23:31:38.258Z,9.72
2022-09-16T23:34:10.261Z,9.71
2022-09-16T23:36:37.686Z,9.70
2022-09-16T23:39:06.754Z,9.68
2022-09-16T23:41:33.599Z,9.68
2022-09-16T23:44:00.099Z,9.70
2022-09-16T23:46:29.552Z,9.61
2022-09-16T23:48:56.977Z,9.56
2022-09-16T23:51:28.279Z,9.65
2022-09-16T23:53:56.645Z,9.74
2022-09-16T23:56:23.362Z,9.72
2022-09-16T23:58:51.071Z,9.69
